createdAt,value
2018-08-28T00:02:29.983Z,18.40
2018-08-28T00:05:00.236Z,18.40
2018-08-28T00:07:29.150Z,18.40
2018-08-28T00:09:57.609Z,18.40
2018-08-28T00:12:26.212Z,18.30
2018-08-28T00:14:54.796Z,18.40
2018-08-28T00:17:23.259Z,18.30
2018-08-28T00:19:51.732Z,18.30
2018-08-28T00:22:20.160Z,18.40
2018-08-28T00:24:48.694Z,18.40
2018-08-28T00:27:17.279Z,18.40
2018-08-28T00:29:45.692Z,18.40
2018-08-28T00:32:14.126Z,18.40
2018-08-28T00:34:42.580Z,18.40
2018-08-28T00:37:11.017Z,18.50
2018-08-28T00:39:39.428Z,18.40
2018-08-28T00:42:08.098Z,18.40
2018-08-28T00:44:36.529Z,18.40
2018-08-28T00:47:05.000Z,18.40
2018-08-28T00:49:33.427Z,18.30
2018-08-28T00:52:01.864Z,18.40
2018-08-28T00:54:30.316Z,18.40
2018-08-28T00:56:58.756Z,18.40
2018-08-28T00:59:27.227Z,18.40
2018-08-28T01:01:55.627Z,18.40
2018-08-28T01:04:24.074Z,18.40
2018-08-28T01:06:52.514Z,18.40
2018-08-28T01:09:20.945Z,18.30
2018-08-28T01:11:50.004Z,18.40
2018-08-28T01:14:18.503Z,18.30
2018-08-28T01:16:46.948Z,18.30
2018-08-28T01:19:15.337Z,18.30
2018-08-28T01:21:43.774Z,18.20
2018-08-28T01:24:12.208Z,18.20
2018-08-28T01:26:40.690Z,18.10
2018-08-28T01:29:09.114Z,18.10
2018-08-28T01:31:37.513Z,18.00
2018-08-28T01:34:06.096Z,18.00
2018-08-28T01:36:34.536Z,17.90
2018-08-28T01:39:03.262Z,17.90
2018-08-28T01:41:31.673Z,17.90
2018-08-28T01:44:00.065Z,17.80
2018-08-28T01:46:28.484Z,17.80
2018-08-28T01:48:56.925Z,17.80
2018-08-28T01:51:25.351Z,17.70
2018-08-28T01:53:53.765Z,17.70
2018-08-28T01:56:22.198Z,17.70
2018-08-28T01:58:50.596Z,17.70
2018-08-28T02:01:19.161Z,17.60
2018-08-28T02:03:47.558Z,17.50
2018-08-28T02:06:15.989Z,17.50
2018-08-28T02:08:44.388Z,17.50
2018-08-28T02:11:12.821Z,17.50
2018-08-28T02:13:41.260Z,17.50
2018-08-28T02:16:09.673Z,17.50
2018-08-28T02:18:38.136Z,17.40
2018-08-28T02:21:06.609Z,17.40
2018-08-28T02:23:35.313Z,17.40
2018-08-28T02:26:03.736Z,17.40
2018-08-28T02:28:32.151Z,17.40
2018-08-28T02:31:00.577Z,17.40
2018-08-28T02:33:29.013Z,17.30
2018-08-28T02:35:57.435Z,17.30
2018-08-28T02:38:25.908Z,17.30
2018-08-28T02:40:54.311Z,17.30
2018-08-28T02:43:22.755Z,17.30
2018-08-28T02:45:51.157Z,17.20
2018-08-28T02:48:19.621Z,17.20
2018-08-28T02:50:48.031Z,17.20
2018-08-28T02:53:16.561Z,17.20
2018-08-28T02:55:44.980Z,17.20
2018-08-28T02:58:13.650Z,17.20
2018-08-28T03:00:42.149Z,17.10
2018-08-28T03:03:10.656Z,17.10
2018-08-28T03:05:39.121Z,17.00
2018-08-28T03:08:07.543Z,16.80
2018-08-28T03:10:35.987Z,16.70
2018-08-28T03:13:04.445Z,16.60
2018-08-28T03:15:32.992Z,16.50
2018-08-28T03:18:01.330Z,16.50
2018-08-28T03:20:29.749Z,16.40
2018-08-28T03:22:58.179Z,16.30
2018-08-28T03:25:26.585Z,16.30
2018-08-28T03:27:55.385Z,16.30
2018-08-28T03:30:23.877Z,16.20
2018-08-28T03:32:52.308Z,16.20
2018-08-28T03:35:20.716Z,16.10
2018-08-28T03:37:49.168Z,16.00
2018-08-28T03:40:17.584Z,16.00
2018-08-28T03:42:46.008Z,15.90
2018-08-28T03:45:14.444Z,15.90
2018-08-28T03:47:42.856Z,15.90
2018-08-28T03:50:11.268Z,15.90
2018-08-28T03:52:39.694Z,15.90
2018-08-28T03:55:08.133Z,15.90
2018-08-28T03:57:36.532Z,15.80
2018-08-28T04:00:05.634Z,15.70
2018-08-28T04:02:34.038Z,15.60
2018-08-28T04:05:02.658Z,15.50
2018-08-28T04:07:31.184Z,15.50
2018-08-28T04:09:59.632Z,15.50
2018-08-28T04:12:28.068Z,15.40
2018-08-28T04:14:56.500Z,15.50
2018-08-28T04:17:25.009Z,15.50
2018-08-28T04:19:53.442Z,15.30
2018-08-28T04:22:21.902Z,15.20
2018-08-28T04:24:50.345Z,15.10
2018-08-28T04:27:18.768Z,15.10
2018-08-28T04:29:47.221Z,15.00
2018-08-28T04:32:15.623Z,15.10
2018-08-28T04:34:44.081Z,15.00
2018-08-28T04:37:12.869Z,14.80
2018-08-28T04:39:41.296Z,14.70
2018-08-28T04:42:09.692Z,14.70
2018-08-28T04:44:38.124Z,14.60
2018-08-28T04:47:06.651Z,14.60
2018-08-28T04:49:35.090Z,14.50
2018-08-28T04:52:03.536Z,14.40
2018-08-28T04:54:31.942Z,14.30
2018-08-28T04:57:00.360Z,14.30
2018-08-28T04:59:28.784Z,14.30
2018-08-28T05:01:57.220Z,14.30
2018-08-28T05:04:25.692Z,14.30
2018-08-28T05:06:54.142Z,14.30
2018-08-28T05:09:22.784Z,14.40
2018-08-28T05:11:52.178Z,14.50
2018-08-28T05:14:20.586Z,14.60
2018-08-28T05:16:48.998Z,14.80
2018-08-28T05:19:17.543Z,14.90
2018-08-28T05:21:46.417Z,15.00
2018-08-28T05:24:14.914Z,15.20
2018-08-28T05:26:43.698Z,15.20
2018-08-28T05:29:12.224Z,15.40
2018-08-28T05:31:40.929Z,15.50
2018-08-28T05:34:09.323Z,15.70
2018-08-28T05:36:37.754Z,15.80
2018-08-28T05:39:07.028Z,15.90
2018-08-28T05:41:35.640Z,16.30
2018-08-28T05:44:04.068Z,16.50
2018-08-28T05:46:32.503Z,16.50
2018-08-28T05:49:00.932Z,16.50
2018-08-28T05:51:29.337Z,16.70
2018-08-28T05:53:58.512Z,17.00
2018-08-28T05:56:26.934Z,17.20
2018-08-28T05:58:55.510Z,17.40
2018-08-28T06:01:23.914Z,17.60
2018-08-28T06:03:52.346Z,17.90
2018-08-28T06:06:20.821Z,18.10
2018-08-28T06:08:49.356Z,18.20
2018-08-28T06:11:17.761Z,18.30
2018-08-28T06:13:46.238Z,18.30
2018-08-28T06:16:14.630Z,18.50
2018-08-28T06:18:43.122Z,18.60
2018-08-28T06:21:11.552Z,18.90
2018-08-28T06:23:39.954Z,19.30
2018-08-28T06:26:08.444Z,19.80
2018-08-28T06:28:36.868Z,20.00
2018-08-28T06:31:05.451Z,20.20
2018-08-28T06:33:38.319Z,20.40
2018-08-28T06:36:15.898Z,20.60
2018-08-28T06:38:44.545Z,20.90
2018-08-28T06:41:12.940Z,21.20
2018-08-28T06:43:41.401Z,21.50
2018-08-28T06:46:09.809Z,21.60
2018-08-28T06:48:38.422Z,21.90
2018-08-28T06:51:06.820Z,22.10
2018-08-28T06:53:35.261Z,22.30
2018-08-28T06:56:03.689Z,22.50
2018-08-28T06:58:32.121Z,22.50
2018-08-28T07:01:00.569Z,22.60
2018-08-28T07:03:29.131Z,22.70
2018-08-28T07:05:57.718Z,22.70
2018-08-28T07:08:26.800Z,22.90
2018-08-28T07:10:55.235Z,23.20
2018-08-28T07:13:23.638Z,23.50
2018-08-28T07:15:52.167Z,23.60
2018-08-28T07:18:20.572Z,23.70
2018-08-28T07:20:48.987Z,23.90
2018-08-28T07:23:17.538Z,24.10
2018-08-28T07:25:46.063Z,24.30
2018-08-28T07:28:14.345Z,24.30
2018-08-28T07:30:42.769Z,24.40
2018-08-28T07:33:11.213Z,24.60
2018-08-28T07:35:39.643Z,24.90
2018-08-28T07:38:08.102Z,24.90
2018-08-28T07:40:36.563Z,25.20
2018-08-28T07:43:05.108Z,25.40
2018-08-28T07:45:33.601Z,25.60
2018-08-28T07:48:02.016Z,25.60
2018-08-28T07:50:30.606Z,25.80
2018-08-28T07:52:59.057Z,25.90
2018-08-28T07:55:27.482Z,26.00
2018-08-28T07:57:55.863Z,25.90
2018-08-28T08:00:24.364Z,26.10
2018-08-28T08:02:52.749Z,26.30
2018-08-28T08:05:21.243Z,26.80
2018-08-28T08:07:49.683Z,26.60
2018-08-28T08:10:18.576Z,26.80
2018-08-28T08:12:47.033Z,26.90
2018-08-28T08:15:15.513Z,26.80
2018-08-28T08:17:43.919Z,26.90
2018-08-28T08:20:12.440Z,26.80
2018-08-28T08:22:40.869Z,26.80
2018-08-28T08:25:09.292Z,26.90
2018-08-28T08:27:37.691Z,27.20
2018-08-28T08:30:06.157Z,27.50
2018-08-28T08:32:34.575Z,27.60
2018-08-28T08:35:02.989Z,27.50
2018-08-28T08:37:31.457Z,27.70
2018-08-28T08:39:59.918Z,26.90
2018-08-28T08:42:28.316Z,26.20
2018-08-28T08:44:56.741Z,25.40
2018-08-28T08:47:25.119Z,25.30
2018-08-28T08:49:53.551Z,26.10
2018-08-28T08:52:22.163Z,26.90
2018-08-28T08:54:50.574Z,27.60
2018-08-28T08:57:18.912Z,26.90
2018-08-28T08:59:47.435Z,26.00
2018-08-28T09:02:15.813Z,25.30
2018-08-28T09:04:44.224Z,25.30
2018-08-28T09:07:13.081Z,25.20
2018-08-28T09:09:41.496Z,25.40
2018-08-28T09:12:09.909Z,25.40
2018-08-28T09:14:38.381Z,25.20
2018-08-28T09:17:06.959Z,25.40
2018-08-28T09:19:35.370Z,25.50
2018-08-28T09:22:03.823Z,25.40
2018-08-28T09:24:32.228Z,24.90
2018-08-28T09:27:00.621Z,24.60
2018-08-28T09:29:29.285Z,24.50
2018-08-28T09:31:57.729Z,24.40
2018-08-28T09:34:26.145Z,24.30
2018-08-28T09:36:54.777Z,24.20
2018-08-28T09:39:23.356Z,24.30
2018-08-28T09:41:51.841Z,24.70
2018-08-28T09:44:20.252Z,25.20
2018-08-28T09:46:48.665Z,25.80
2018-08-28T09:49:17.104Z,26.40
2018-08-28T09:51:45.593Z,26.80
2018-08-28T09:54:13.988Z,27.10
2018-08-28T09:56:42.517Z,26.60
2018-08-28T09:59:10.881Z,25.80
2018-08-28T10:01:43.208Z,25.20
2018-08-28T10:04:12.432Z,24.80
2018-08-28T10:06:40.973Z,24.70
2018-08-28T10:09:12.011Z,24.50
2018-08-28T10:11:40.696Z,24.10
2018-08-28T10:14:09.785Z,24.10
2018-08-28T10:16:38.253Z,23.80
2018-08-28T10:19:07.016Z,23.60
2018-08-28T10:21:35.645Z,23.30
2018-08-28T10:24:04.121Z,23.00
2018-08-28T10:26:32.550Z,22.70
2018-08-28T10:29:00.969Z,22.40
2018-08-28T10:31:29.570Z,22.20
2018-08-28T10:33:58.094Z,22.20
2018-08-28T10:36:26.837Z,22.10
2018-08-28T10:38:55.434Z,22.20
2018-08-28T10:41:23.955Z,22.40
2018-08-28T10:43:52.400Z,22.70
2018-08-28T10:46:20.962Z,22.80
2018-08-28T10:48:49.356Z,22.70
2018-08-28T10:51:18.242Z,22.50
2018-08-28T10:53:47.108Z,22.30
2018-08-28T10:56:15.605Z,22.10
2018-08-28T10:58:44.096Z,22.10
2018-08-28T11:01:12.448Z,22.60
2018-08-28T11:03:41.134Z,23.30
2018-08-28T11:06:09.578Z,23.60
2018-08-28T11:08:38.217Z,24.00
2018-08-28T11:11:06.671Z,23.80
2018-08-28T11:13:35.097Z,23.40
2018-08-28T11:16:03.567Z,23.20
2018-08-28T11:18:32.039Z,23.50
2018-08-28T11:21:00.473Z,24.00
2018-08-28T11:23:28.952Z,24.00
2018-08-28T11:25:57.367Z,23.60
2018-08-28T11:28:25.825Z,23.30
2018-08-28T11:30:54.275Z,23.50
2018-08-28T11:33:22.742Z,24.10
2018-08-28T11:35:51.635Z,24.20
2018-08-28T11:38:28.654Z,24.40
2018-08-28T11:40:57.159Z,24.10
2018-08-28T11:43:25.608Z,23.80
2018-08-28T11:45:54.134Z,23.60
2018-08-28T11:48:22.537Z,23.70
2018-08-28T11:50:51.102Z,23.90
2018-08-28T11:53:19.533Z,23.80
2018-08-28T11:55:47.992Z,23.60
2018-08-28T11:58:16.602Z,23.70
2018-08-28T12:00:45.035Z,23.80
2018-08-28T12:03:13.475Z,23.70
2018-08-28T12:05:41.886Z,23.90
2018-08-28T12:08:10.309Z,23.80
2018-08-28T12:10:38.783Z,23.90
2018-08-28T12:13:07.206Z,23.80
2018-08-28T12:15:35.716Z,23.90
2018-08-28T12:18:04.143Z,24.00
2018-08-28T12:20:32.688Z,24.10
2018-08-28T12:23:01.022Z,24.30
2018-08-28T12:25:29.492Z,24.50
2018-08-28T12:27:57.971Z,24.40
2018-08-28T12:30:26.399Z,24.00
2018-08-28T12:32:54.972Z,24.00
2018-08-28T12:35:23.473Z,24.10
2018-08-28T12:37:51.901Z,24.00
2018-08-28T12:40:20.393Z,23.70
2018-08-28T12:42:48.877Z,23.60
2018-08-28T12:45:17.291Z,23.60
2018-08-28T12:47:46.297Z,23.90
2018-08-28T12:50:14.903Z,24.00
2018-08-28T12:52:43.328Z,23.80
2018-08-28T12:55:11.769Z,23.90
2018-08-28T12:57:40.457Z,23.90
2018-08-28T13:00:09.169Z,23.90
2018-08-28T13:02:37.643Z,23.90
2018-08-28T13:05:06.167Z,23.70
2018-08-28T13:07:34.753Z,23.70
2018-08-28T13:10:03.237Z,23.50
2018-08-28T13:12:31.687Z,23.50
2018-08-28T13:15:00.096Z,23.50
2018-08-28T13:17:28.510Z,23.50
2018-08-28T13:19:56.978Z,23.50
2018-08-28T13:22:25.436Z,23.60
2018-08-28T13:24:57.970Z,23.60
2018-08-28T13:27:26.597Z,23.60
2018-08-28T13:29:55.040Z,23.50
2018-08-28T13:32:23.510Z,23.50
2018-08-28T13:34:51.932Z,23.60
2018-08-28T13:37:20.300Z,23.80
2018-08-28T13:39:48.730Z,23.80
2018-08-28T13:42:17.137Z,23.50
2018-08-28T13:44:45.576Z,23.50
2018-08-28T13:47:14.122Z,23.50
2018-08-28T13:49:42.420Z,23.60
2018-08-28T13:52:11.028Z,23.70
2018-08-28T13:54:39.515Z,23.80
2018-08-28T13:57:07.987Z,23.70
2018-08-28T13:59:36.456Z,23.70
2018-08-28T14:02:04.928Z,23.60
2018-08-28T14:04:33.455Z,23.60
2018-08-28T14:07:01.852Z,23.70
2018-08-28T14:09:30.264Z,23.70
2018-08-28T14:11:58.656Z,23.70
2018-08-28T14:14:27.590Z,23.80
2018-08-28T14:16:56.018Z,23.80
2018-08-28T14:19:24.435Z,23.70
2018-08-28T14:21:52.952Z,23.70
2018-08-28T14:24:21.360Z,23.50
2018-08-28T14:26:49.787Z,23.70
2018-08-28T14:29:18.201Z,23.70
2018-08-28T14:31:46.652Z,23.60
2018-08-28T14:34:15.019Z,23.70
2018-08-28T14:36:43.503Z,23.60
2018-08-28T14:39:11.912Z,23.50
2018-08-28T14:41:40.590Z,23.50
2018-08-28T14:44:09.214Z,23.50
2018-08-28T14:46:37.701Z,23.50
2018-08-28T14:49:06.336Z,23.50
2018-08-28T14:51:34.736Z,23.50
2018-08-28T14:54:03.240Z,23.60
2018-08-28T14:56:31.702Z,23.60
2018-08-28T14:59:00.057Z,23.60
2018-08-28T15:01:28.552Z,23.60
2018-08-28T15:03:57.006Z,23.60
2018-08-28T15:06:25.414Z,23.70
2018-08-28T15:08:53.879Z,23.70
2018-08-28T15:11:22.276Z,23.80
2018-08-28T15:13:50.715Z,23.80
2018-08-28T15:16:19.610Z,23.80
2018-08-28T15:18:48.113Z,23.90
2018-08-28T15:21:16.755Z,23.80
2018-08-28T15:23:45.421Z,23.70
2018-08-28T15:26:13.968Z,23.60
2018-08-28T15:28:43.342Z,23.60
2018-08-28T15:31:11.837Z,23.70
2018-08-28T15:33:40.451Z,23.70
2018-08-28T15:36:08.864Z,23.70
2018-08-28T15:38:37.484Z,23.70
2018-08-28T15:41:06.129Z,23.70
2018-08-28T15:43:34.596Z,23.70
2018-08-28T15:46:03.043Z,23.70
2018-08-28T15:48:31.436Z,23.60
2018-08-28T15:51:01.069Z,23.60
2018-08-28T15:53:29.447Z,23.60
2018-08-28T15:55:57.884Z,23.60
2018-08-28T15:58:26.326Z,23.60
2018-08-28T16:00:54.764Z,23.60
2018-08-28T16:03:23.234Z,23.60
2018-08-28T16:05:51.667Z,23.60
2018-08-28T16:08:20.096Z,23.60
2018-08-28T16:10:48.490Z,23.50
2018-08-28T16:13:16.880Z,23.50
2018-08-28T16:15:45.344Z,23.50
2018-08-28T16:18:13.830Z,23.50
2018-08-28T16:20:42.653Z,23.50
2018-08-28T16:23:16.416Z,23.50
2018-08-28T16:25:45.012Z,23.40
2018-08-28T16:28:13.520Z,23.50
2018-08-28T16:30:42.518Z,23.50
2018-08-28T16:33:11.043Z,23.50
2018-08-28T16:35:39.702Z,23.40
2018-08-28T16:38:11.390Z,23.40
2018-08-28T16:40:39.841Z,23.40
2018-08-28T16:43:08.258Z,23.40
2018-08-28T16:45:36.703Z,23.30
2018-08-28T16:48:05.083Z,23.30
2018-08-28T16:50:33.819Z,23.30
2018-08-28T16:53:02.243Z,23.30
2018-08-28T16:55:30.673Z,23.30
2018-08-28T16:57:59.083Z,23.20
2018-08-28T17:00:27.707Z,23.20
2018-08-28T17:02:56.113Z,23.20
2018-08-28T17:05:25.420Z,23.20
2018-08-28T17:07:53.916Z,23.20
2018-08-28T17:10:22.407Z,23.10
2018-08-28T17:12:50.833Z,23.10
2018-08-28T17:15:19.309Z,23.10
2018-08-28T17:17:47.741Z,23.10
2018-08-28T17:20:16.177Z,23.10
2018-08-28T17:22:44.587Z,23.10
2018-08-28T17:25:13.069Z,23.10
2018-08-28T17:27:41.546Z,23.00
2018-08-28T17:30:10.029Z,23.00
2018-08-28T17:32:38.457Z,22.90
2018-08-28T17:35:07.453Z,22.90
2018-08-28T17:37:35.921Z,22.90
2018-08-28T17:40:04.379Z,22.80
2018-08-28T17:42:32.999Z,22.80
2018-08-28T17:45:01.456Z,22.80
2018-08-28T17:47:29.943Z,22.70
2018-08-28T17:49:58.422Z,22.70
2018-08-28T17:52:26.861Z,22.60
2018-08-28T17:54:55.301Z,22.60
2018-08-28T17:57:23.697Z,22.60
2018-08-28T17:59:52.161Z,22.50
2018-08-28T18:02:20.955Z,22.40
2018-08-28T18:04:49.411Z,22.40
2018-08-28T18:07:18.823Z,22.40
2018-08-28T18:09:47.281Z,22.30
2018-08-28T18:12:15.707Z,22.20
2018-08-28T18:14:44.114Z,22.20
2018-08-28T18:17:12.784Z,22.20
2018-08-28T18:19:41.199Z,22.10
2018-08-28T18:22:10.584Z,22.10
2018-08-28T18:24:39.063Z,22.00
2018-08-28T18:27:07.496Z,22.00
2018-08-28T18:29:35.988Z,21.90
2018-08-28T18:32:04.433Z,21.90
2018-08-28T18:34:32.882Z,21.80
2018-08-28T18:37:01.282Z,21.70
2018-08-28T18:39:29.681Z,21.70
2018-08-28T18:42:13.833Z,21.60
2018-08-28T18:44:42.693Z,21.60
2018-08-28T18:47:11.189Z,21.50
2018-08-28T18:49:42.677Z,21.40
2018-08-28T18:52:11.135Z,21.40
2018-08-28T18:54:39.697Z,21.30
2018-08-28T18:57:08.099Z,21.30
2018-08-28T18:59:36.527Z,21.30
2018-08-28T19:02:05.001Z,21.10
2018-08-28T19:04:33.447Z,21.10
2018-08-28T19:07:01.891Z,21.10
2018-08-28T19:09:30.403Z,21.00
2018-08-28T19:11:58.789Z,21.00
2018-08-28T19:14:27.483Z,20.90
2018-08-28T19:16:56.477Z,20.90
2018-08-28T19:19:25.088Z,20.80
2018-08-28T19:21:54.073Z,20.80
2018-08-28T19:24:22.575Z,20.70
2018-08-28T19:26:51.035Z,20.70
2018-08-28T19:29:19.485Z,20.70
2018-08-28T19:31:48.112Z,20.70
2018-08-28T19:34:16.494Z,20.70
2018-08-28T19:36:54.787Z,20.60
2018-08-28T19:39:23.275Z,20.50
2018-08-28T19:41:51.761Z,20.50
2018-08-28T19:44:20.288Z,20.40
2018-08-28T19:46:48.797Z,20.50
2018-08-28T19:49:17.206Z,20.40
2018-08-28T19:51:45.637Z,20.40
2018-08-28T19:54:14.121Z,20.30
2018-08-28T19:56:42.577Z,20.30
2018-08-28T19:59:10.979Z,20.20
2018-08-28T20:01:39.429Z,20.30
2018-08-28T20:04:08.111Z,20.20
2018-08-28T20:06:36.448Z,20.10
2018-08-28T20:09:05.336Z,20.10
2018-08-28T20:11:33.790Z,20.10
2018-08-28T20:14:02.240Z,20.00
2018-08-28T20:16:30.657Z,20.00
2018-08-28T20:18:59.199Z,20.00
2018-08-28T20:21:27.603Z,19.90
2018-08-28T20:23:56.136Z,19.90
2018-08-28T20:26:24.639Z,19.80
2018-08-28T20:28:53.063Z,19.80
2018-08-28T20:31:22.068Z,19.70
2018-08-28T20:33:50.589Z,19.60
2018-08-28T20:36:19.037Z,19.60
2018-08-28T20:38:47.449Z,19.50
2018-08-28T20:41:15.883Z,19.50
2018-08-28T20:43:44.453Z,19.50
2018-08-28T20:46:12.917Z,19.50
2018-08-28T20:48:41.421Z,19.50
2018-08-28T20:51:09.848Z,19.50
2018-08-28T20:53:38.368Z,19.40
2018-08-28T20:56:06.873Z,19.30
2018-08-28T20:58:35.367Z,19.20
2018-08-28T21:01:03.793Z,19.10
2018-08-28T21:03:32.209Z,19.10
2018-08-28T21:06:00.653Z,19.00
2018-08-28T21:08:29.140Z,19.00
2018-08-28T21:10:57.584Z,19.00
2018-08-28T21:13:27.408Z,18.90
2018-08-28T21:15:56.019Z,18.90
2018-08-28T21:18:24.444Z,18.80
2018-08-28T21:20:52.876Z,18.80
2018-08-28T21:23:21.322Z,18.80
2018-08-28T21:25:49.732Z,18.80
2018-08-28T21:28:18.169Z,18.70
2018-08-28T21:30:46.585Z,18.60
2018-08-28T21:33:15.000Z,18.60
2018-08-28T21:35:43.466Z,18.60
2018-08-28T21:38:11.828Z,18.60
2018-08-28T21:40:40.254Z,18.50
2018-08-28T21:43:08.884Z,18.50
2018-08-28T21:45:37.333Z,18.50
2018-08-28T21:48:05.775Z,18.50
2018-08-28T21:50:34.193Z,18.50
2018-08-28T21:53:02.636Z,18.50
2018-08-28T21:55:31.090Z,18.40
2018-08-28T21:57:59.536Z,18.30
2018-08-28T22:00:27.970Z,18.30
2018-08-28T22:02:56.410Z,18.30
2018-08-28T22:05:29.804Z,18.30
2018-08-28T22:07:59.747Z,18.20
2018-08-28T22:10:29.246Z,18.20
2018-08-28T22:12:57.816Z,18.20
2018-08-28T22:15:26.715Z,18.10
2018-08-28T22:17:55.771Z,18.10
2018-08-28T22:20:24.165Z,18.10
2018-08-28T22:22:53.317Z,18.10
2018-08-28T22:25:21.963Z,18.00
2018-08-28T22:27:50.386Z,18.10
2018-08-28T22:30:18.791Z,18.00
2018-08-28T22:32:47.186Z,18.00
2018-08-28T22:35:15.863Z,18.00
2018-08-28T22:37:44.282Z,18.00
2018-08-28T22:40:13.252Z,17.90
2018-08-28T22:42:42.144Z,17.90
2018-08-28T22:45:10.716Z,17.90
2018-08-28T22:47:49.213Z,17.90
2018-08-28T22:50:17.741Z,17.80
2018-08-28T22:52:46.136Z,17.80
2018-08-28T22:55:14.556Z,17.70
2018-08-28T22:57:42.958Z,17.70
2018-08-28T23:00:11.376Z,17.70
2018-08-28T23:02:39.782Z,17.70
2018-08-28T23:05:08.204Z,17.70
2018-08-28T23:07:36.641Z,17.60
2018-08-28T23:10:05.185Z,17.60
2018-08-28T23:12:33.585Z,17.50
2018-08-28T23:15:02.041Z,17.40
2018-08-28T23:17:30.483Z,17.40
2018-08-28T23:19:58.901Z,17.40
2018-08-28T23:22:27.343Z,17.30
2018-08-28T23:24:55.755Z,17.30
2018-08-28T23:27:24.185Z,17.20
2018-08-28T23:29:52.680Z,17.20
2018-08-28T23:32:21.146Z,17.30
2018-08-28T23:34:49.547Z,17.30
2018-08-28T23:37:17.949Z,17.40
2018-08-28T23:39:46.369Z,17.40
2018-08-28T23:42:14.955Z,17.40
2018-08-28T23:44:43.381Z,17.40
2018-08-28T23:47:11.801Z,17.30
2018-08-28T23:49:40.263Z,17.30
2018-08-28T23:52:08.719Z,17.30
2018-08-28T23:54:37.195Z,17.30
2018-08-28T23:57:05.613Z,17.30
2018-08-28T23:59:34.044Z,17.30
